This site, now in its 22nd season, is a labour of love and fun from one of Ottawa's most avid time trialists and number crunchers. It adheres to and is permitted by the laws of Canada, promotes the objectives of every bicycle club whose results are shown, and is donated free of charge by myself for your enjoyment and usage. If you would like results from series you ride in to be shown here, give me (celia@drmath.ca) a shout!
NOTE that this site had to be quickly moved to a new server with a new version of Perl. Unfortunately the way of interacting with the web form has changed, so I'll have to do some reprogramming to get the buttons and search boxes working. Meanwhile the links work fine and you can always add query specifications into the URL! :-)


Index Page
ATT OTT WTT AATT CFCTT VVVTT
Help resultformat:
Case-sensitive

OBC Open TT Series - 2016-May-05 - 15km (Rockliffe Pkwy) (EvtFactor = 0.8598)

Ottawa Weather (18:00): Mainly Sunny. Temperature: 18.1C, Wind: ENE 14 gust 31km/h, Relative humidity: 36%, Dew point: 3C, Pressure: 100.9kPa, Visibility: 24km.
Ottawa Weather (19:00): Mainly Sunny. Temperature: 16.8C, Wind: ESE 23km/h, Relative humidity: 42%, Dew point: 4C, Pressure: 100.9kPa, Visibility: 24km.
Ottawa Weather (20:00): Sunny. Temperature: 14.5C, Wind: E 18km/h, Relative humidity: 47%, Dew point: 3C, Pressure: 101.0kPa, Visibility: 24km.



These results were first posted on the OBC web site circa 23:00 on 2016-May-11 (with modifications on 2016-May-12) and are available here for your added pleasure and analysis.

 
 

BESTS?
 
1 Gagnon, Alexandre  OBC 19:59 45.038 1/49 U30M 1/4  
2 Diaz, Rodrigo  OBC/EUR 20:06 44.776 2/49 U40M 1/6  
3 Katz, Joel  OBC/RWR 20:28 43.974 3/49 U70M 1/6  
4 Moltmaker, Tijmen IND 21:00 42.857 4/49 U40M 2/6  
5 Lagueux, Frederic RPO 21:07 42.620 5/49 U50M 1/8  
6 Burge, Craig  CYC 21:33 41.763 6/49 U60M 1/9  
7 Robitaille, Brian  OBC/FC 21:51 41.190 7/49 U60M 2/9  
8 Miles, Carson OBC 21:58 40.971 8/49 U17M 1/3  
9 Martel, Laurent RPO 22:08 40.663 9/49 U50M 2/8  
10 Reiher, Martin RPO 22:20 40.299 10/49 U60M 3/9  
11 Page, Graham OBC/NTF 22:24 40.179 11/49 U40M 3/6  
12 Mullington, Chris WQW 22:28 40.059 12/49 U60M 4/9  
13 DeVidi, Robert  OBC 22:30 40.000 13/49 U60M 5/9  
14 Labonte, Philippe OBC 22:36 39.823 14/49 U30M 2/4  
15 Budgell, Glen  OBC 22:50 39.416 15/49 U70M 2/6  
16 Wright, David EUR 22:58 39.187 16/49 U50M 3/8  
17 Burge, Larry  OBC 23:10 38.849 17/49 U60M 6/9  
18 Le-Lieu, Martin OBC 23:11 38.821 18/49 U40M 4/6  
19 Pihlainen, Matti IND 23:17 38.654 19/49 U30M 3/4  
20 Stephenson, Jennifer  PKE 23:18 38.627 20/49 U50F 1/3  
21 Chrysikopoulos, Nikos OBC 23:22 38.516 21/49 U19M 1/1  
McClure, Robert OBC 23:22 38.516 21/49 U60M 7/9  
23 Canning, Jim OBC 23:37 38.109 23/49 U50M 4/8  
24 Angeles, Robyn  IND 23:45 37.895 24/49 U60F 1/1  
Trepanier, Mathieu OBC 23:45 37.895 24/49 U50M 5/8  
26 Clarke, Shawn SRC/CYC 23:55 37.631 26/49 U40M 5/6  
27 Redshaw, Russ  OBC 24:01 37.474 27/49 U70M 3/6  
28 Lemire, Marie-Alexandre OBC 24:07 37.319 28/49 U19F 1/1  
29 Deschamps, Martin WQW 24:13 37.164 29/49 U50M 6/8  
30 Wright, Jake EUR 24:30 36.735 30/49 U17M 2/3  
31 Guignard, Christian OBC 24:32 36.685 31/49 U70M 4/6  
32 Courtman, David OBC 24:45 36.364 32/49 U60M 8/9  
Looman, Greg OBC 24:45 36.364 32/49 U50M 7/8  
34 Grace, Darrin  EUR 25:01 35.976 34/49 U60M 9/9  
35 Beauchamp, Angela  EUR 25:21 35.503 35/49 U50F 2/3  
36 Markel, Dan OBC 25:29 35.317 36/49 U50M 8/8  
37 Morvan, Jacques  OBC 25:30 35.294 37/49 U80M 1/5  
38 Coney, Ingrid  OBC 25:45 34.951 38/49 U70F 1/2  
39 Comtois Lecocq, Alex OBC 25:48 34.884 39/49 U40M 6/6  
40 Moerman, Bram  OBC 25:51 34.816 40/49 U80M 2/5  
41 Johnson, Byron  OBC 25:53 34.771 41/49 U70M 5/6  
42 Tkalec, Heather  EUR 25:58 34.660 42/49 U50F 3/3  
43 McInnis, Celia  OBC/ABC 26:28 34.005 43/49 U70F 2/2  
44 Mijal, Vello OBC 27:01 33.313 44/49 U80M 3/5  
45 Balint, John OBC 27:04 33.251 45/49 U80M 4/5  
46 Dobbs, Brian OBC 27:26 32.807 46/49 U70M 6/6  
47 Lebrun, Antoine OBC 28:30 31.579 47/49 U17M 3/3  
48 Barber, Graeme OBC 31:02 29.001 48/49 U80M 5/5  
49 Hovey, Caleb
(flat tire)
OBC DNF   49/49 U30M 4/4  
 
Average Speed of all of the above 48 finishes (720km in 19:11:58):37.501
>>>Average of the Average Speeds for these 48 finishes37.803<<<
 

The number of data records shown above is 49
The server processing of your query took: 0 wallclock secs ( 0.02 usr + 0.02 sys = 0.04 CPU)

Thanks to our Helpers: Michel Bernier, John Kinos, Alex McKnight, Jess Raymond, Peter Tregunno.

     


Mar 25 (Good Friday - cancelled)
May 3 (10km)
  May 5  
May 10 May 10 (10km) May 12 May 17 May 17 (10km) May 19 May 24 May 24 (10km) May 26 May 31 May 31 (10km)
Jun 2 Jun 5 (40km) Jun 7 Jun 7 Jun 9 Jun 14 Jun 14 Jun 16 Jun 21 Jun 21 Jun 23 Jun 28 Jun 28 Jun 30
Jul 3 (40km) Jul 5 Jul 5 Jul 7 Jul 12 Jul 12 Jul 14 Jul 19 Jul 19 Jul 21 Jul 26 Jul 26 Jul 28
Aug 2 Aug 2 Aug 4 Aug 7 (40km) Aug 9 Aug 9 Aug 11 Aug 16 (canceled) Aug 16 (canceled) Aug 18 Aug 23 Aug 23 Aug 25 Aug 30 Aug 30 (Invitational)
Sep 1 Sep 4 (40km) Sep 6 Sep 8 Sep 13 Sep 20

WTT Rankings for All Participants
4 Best Speeds (≥4 WTT, ≤1 10km)     4 Best Speeds (≥4 WTT, ≤1 10km) by category
OTT Best Three 15km Rankings
Overall     by category     age-Hcap Female   age-Hcap Male
[OWA]TT BAR Ranking
Overall     by category     Rider "Consistency-Graph"
ABC BAR Ranking
Overall     by category     Rider "Consistency-Graph"
Other years
TT Calculator All TT People All TT events
ABC Home VVV Home
CKAP GOLD MEDAL
Other Links

Please send your comments and suggestions to: Celia McInnis
Copyright © 1998-2021 Celia McInnis. All rights reserved. Links are welcomed.